sensor_id;sensor_type;location;lat;lon;timestamp;temperature;humidity
67750;DHT22;54550;48.838;8.828;2023-11-21T00:02:07;5.70;99.90
67750;DHT22;54550;48.838;8.828;2023-11-21T00:04:32;5.70;99.90
67750;DHT22;54550;48.838;8.828;2023-11-21T00:06:57;5.70;99.90
67750;DHT22;54550;48.838;8.828;2023-11-21T00:09:23;5.70;99.90
67750;DHT22;54550;48.838;8.828;2023-11-21T00:11:48;5.70;99.90
67750;DHT22;54550;48.838;8.828;2023-11-21T00:14:14;5.70;99.90
67750;DHT22;54550;48.838;8.828;2023-11-21T00:16:40;5.70;99.90
67750;DHT22;54550;48.838;8.828;2023-11-21T00:19:06;5.70;99.90
67750;DHT22;54550;48.838;8.828;2023-11-21T00:21:32;5.80;99.90
67750;DHT22;54550;48.838;8.828;2023-11-21T00:23:57;5.80;99.90
67750;DHT22;54550;48.838;8.828;2023-11-21T00:26:22;5.80;99.90
67750;DHT22;54550;48.838;8.828;2023-11-21T00:28:49;5.80;99.90
67750;DHT22;54550;48.838;8.828;2023-11-21T00:31:15;5.90;99.90
67750;DHT22;54550;48.838;8.828;2023-11-21T00:33:42;5.90;99.90
67750;DHT22;54550;48.838;8.828;2023-11-21T00:36:08;5.90;99.90
67750;DHT22;54550;48.838;8.828;2023-11-21T00:38:38;5.90;99.90
67750;DHT22;54550;48.838;8.828;2023-11-21T00:41:06;6.00;99.90
67750;DHT22;54550;48.838;8.828;2023-11-21T00:43:32;5.90;99.90
67750;DHT22;54550;48.838;8.828;2023-11-21T00:45:58;5.90;99.90
67750;DHT22;54550;48.838;8.828;2023-11-21T00:48:24;5.90;99.90
67750;DHT22;54550;48.838;8.828;2023-11-21T00:50:49;5.90;99.90
67750;DHT22;54550;48.838;8.828;2023-11-21T00:53:15;6.00;99.90
67750;DHT22;54550;48.838;8.828;2023-11-21T00:55:41;6.00;99.90
67750;DHT22;54550;48.838;8.828;2023-11-21T00:58:06;6.00;99.90
67750;DHT22;54550;48.838;8.828;2023-11-21T01:00:32;6.00;99.90
67750;DHT22;54550;48.838;8.828;2023-11-21T01:02:58;6.00;99.90
67750;DHT22;54550;48.838;8.828;2023-11-21T01:05:24;6.00;99.90
67750;DHT22;54550;48.838;8.828;2023-11-21T01:07:49;6.00;99.90
67750;DHT22;54550;48.838;8.828;2023-11-21T01:10:15;6.00;99.90
67750;DHT22;54550;48.838;8.828;2023-11-21T01:12:42;6.00;99.90
67750;DHT22;54550;48.838;8.828;2023-11-21T01:15:08;6.00;99.90
67750;DHT22;54550;48.838;8.828;2023-11-21T01:17:33;6.00;99.90
67750;DHT22;54550;48.838;8.828;2023-11-21T01:20:02;6.00;99.90
67750;DHT22;54550;48.838;8.828;2023-11-21T01:22:28;6.00;99.90
67750;DHT22;54550;48.838;8.828;2023-11-21T01:24:54;6.00;99.90
67750;DHT22;54550;48.838;8.828;2023-11-21T01:27:19;6.10;99.90
67750;DHT22;54550;48.838;8.828;2023-11-21T01:29:45;6.10;99.90
67750;DHT22;54550;48.838;8.828;2023-11-21T01:32:11;6.10;99.90
67750;DHT22;54550;48.838;8.828;2023-11-21T01:34:36;6.20;99.90
67750;DHT22;54550;48.838;8.828;2023-11-21T01:37:02;6.20;99.90
67750;DHT22;54550;48.838;8.828;2023-11-21T01:39:29;6.20;99.90
67750;DHT22;54550;48.838;8.828;2023-11-21T01:41:55;6.20;99.90
67750;DHT22;54550;48.838;8.828;2023-11-21T01:44:20;6.30;99.90
67750;DHT22;54550;48.838;8.828;2023-11-21T01:46:46;6.30;99.90
67750;DHT22;54550;48.838;8.828;2023-11-21T01:49:13;6.30;99.90
67750;DHT22;54550;48.838;8.828;2023-11-21T01:51:47;6.30;99.90
67750;DHT22;54550;48.838;8.828;2023-11-21T01:54:14;6.30;99.90
67750;DHT22;54550;48.838;8.828;2023-11-21T01:56:39;6.30;99.90
67750;DHT22;54550;48.838;8.828;2023-11-21T01:59:05;6.30;99.90
67750;DHT22;54550;48.838;8.828;2023-11-21T02:01:33;6.30;99.90
67750;DHT22;54550;48.838;8.828;2023-11-21T02:03:58;6.30;99.90
67750;DHT22;54550;48.838;8.828;2023-11-21T02:06:23;6.30;99.90
67750;DHT22;54550;48.838;8.828;2023-11-21T02:08:49;6.30;99.90
67750;DHT22;54550;48.838;8.828;2023-11-21T02:11:15;6.30;99.90
67750;DHT22;54550;48.838;8.828;2023-11-21T02:13:41;6.30;99.90
67750;DHT22;54550;48.838;8.828;2023-11-21T02:16:11;6.30;99.90
67750;DHT22;54550;48.838;8.828;2023-11-21T02:18:38;6.30;99.90
67750;DHT22;54550;48.838;8.828;2023-11-21T02:21:04;6.30;99.90
67750;DHT22;54550;48.838;8.828;2023-11-21T02:23:29;6.30;99.90
67750;DHT22;54550;48.838;8.828;2023-11-21T02:25:55;6.30;99.90
67750;DHT22;54550;48.838;8.828;2023-11-21T02:28:21;6.30;99.90
67750;DHT22;54550;48.838;8.828;2023-11-21T02:30:51;6.30;99.90
67750;DHT22;54550;48.838;8.828;2023-11-21T02:33:21;6.30;99.90
67750;DHT22;54550;48.838;8.828;2023-11-21T02:35:46;6.30;99.90
67750;DHT22;54550;48.838;8.828;2023-11-21T02:38:12;6.30;99.90
67750;DHT22;54550;48.838;8.828;2023-11-21T02:40:37;6.30;99.90
67750;DHT22;54550;48.838;8.828;2023-11-21T02:43:03;6.30;99.90
67750;DHT22;54550;48.838;8.828;2023-11-21T02:45:31;6.30;99.90
67750;DHT22;54550;48.838;8.828;2023-11-21T02:47:57;6.30;99.90
67750;DHT22;54550;48.838;8.828;2023-11-21T02:50:22;6.30;99.90
67750;DHT22;54550;48.838;8.828;2023-11-21T02:52:48;6.30;99.90
67750;DHT22;54550;48.838;8.828;2023-11-21T02:55:14;6.30;99.90
67750;DHT22;54550;48.838;8.828;2023-11-21T02:57:39;6.30;99.90
67750;DHT22;54550;48.838;8.828;2023-11-21T03:00:05;6.30;99.90
67750;DHT22;54550;48.838;8.828;2023-11-21T03:02:33;6.30;99.90
67750;DHT22;54550;48.838;8.828;2023-11-21T03:04:58;6.30;99.90
67750;DHT22;54550;48.838;8.828;2023-11-21T03:07:24;6.30;99.90
67750;DHT22;54550;48.838;8.828;2023-11-21T03:09:50;6.30;99.90
67750;DHT22;54550;48.838;8.828;2023-11-21T03:12:15;6.30;99.90
67750;DHT22;54550;48.838;8.828;2023-11-21T03:14:41;6.40;99.90
67750;DHT22;54550;48.838;8.828;2023-11-21T03:17:06;6.40;99.90
67750;DHT22;54550;48.838;8.828;2023-11-21T03:19:32;6.40;99.90
67750;DHT22;54550;48.838;8.828;2023-11-21T03:21:57;6.40;99.90
67750;DHT22;54550;48.838;8.828;2023-11-21T03:24:23;6.40;99.90
67750;DHT22;54550;48.838;8.828;2023-11-21T03:26:48;6.40;99.90
67750;DHT22;54550;48.838;8.828;2023-11-21T03:29:14;6.40;99.90
67750;DHT22;54550;48.838;8.828;2023-11-21T03:31:40;6.40;99.90
67750;DHT22;54550;48.838;8.828;2023-11-21T03:34:05;6.40;99.90
67750;DHT22;54550;48.838;8.828;2023-11-21T03:36:31;6.40;99.90
67750;DHT22;54550;48.838;8.828;2023-11-21T03:38:57;6.40;99.90
67750;DHT22;54550;48.838;8.828;2023-11-21T03:41:22;6.40;99.90
67750;DHT22;54550;48.838;8.828;2023-11-21T03:43:48;6.40;99.90
67750;DHT22;54550;48.838;8.828;2023-11-21T03:46:13;6.40;99.90
67750;DHT22;54550;48.838;8.828;2023-11-21T03:48:39;6.40;99.90
67750;DHT22;54550;48.838;8.828;2023-11-21T03:51:04;6.40;99.90
67750;DHT22;54550;48.838;8.828;2023-11-21T03:53:30;6.40;99.90
67750;DHT22;54550;48.838;8.828;2023-11-21T03:55:55;6.30;99.90
67750;DHT22;54550;48.838;8.828;2023-11-21T03:58:21;6.30;99.90
67750;DHT22;54550;48.838;8.828;2023-11-21T04:00:47;6.20;99.90
67750;DHT22;54550;48.838;8.828;2023-11-21T04:03:14;6.10;99.90
67750;DHT22;54550;48.838;8.828;2023-11-21T04:05:40;6.10;99.90
67750;DHT22;54550;48.838;8.828;2023-11-21T04:08:06;6.00;99.90
67750;DHT22;54550;48.838;8.828;2023-11-21T04:10:32;5.90;99.90
67750;DHT22;54550;48.838;8.828;2023-11-21T04:12:58;5.80;99.90
67750;DHT22;54550;48.838;8.828;2023-11-21T04:15:23;5.70;99.90
67750;DHT22;54550;48.838;8.828;2023-11-21T04:17:49;5.50;99.90
67750;DHT22;54550;48.838;8.828;2023-11-21T04:20:14;5.40;99.90
67750;DHT22;54550;48.838;8.828;2023-11-21T04:22:40;5.30;99.90
67750;DHT22;54550;48.838;8.828;2023-11-21T04:25:08;5.40;99.90
67750;DHT22;54550;48.838;8.828;2023-11-21T04:27:33;5.40;99.90
67750;DHT22;54550;48.838;8.828;2023-11-21T04:29:59;5.40;99.90
67750;DHT22;54550;48.838;8.828;2023-11-21T04:32:25;5.40;99.90
67750;DHT22;54550;48.838;8.828;2023-11-21T04:34:50;5.40;99.90
67750;DHT22;54550;48.838;8.828;2023-11-21T04:37:16;5.50;99.90
67750;DHT22;54550;48.838;8.828;2023-11-21T04:39:41;5.50;99.90
67750;DHT22;54550;48.838;8.828;2023-11-21T04:42:07;5.50;99.90
67750;DHT22;54550;48.838;8.828;2023-11-21T04:44:32;5.60;99.90
67750;DHT22;54550;48.838;8.828;2023-11-21T04:46:58;5.60;99.90
67750;DHT22;54550;48.838;8.828;2023-11-21T04:49:23;5.60;99.90
67750;DHT22;54550;48.838;8.828;2023-11-21T04:51:48;5.70;99.90
67750;DHT22;54550;48.838;8.828;2023-11-21T04:54:14;5.90;99.90
67750;DHT22;54550;48.838;8.828;2023-11-21T04:56:39;6.00;99.90
67750;DHT22;54550;48.838;8.828;2023-11-21T04:59:05;6.00;99.90
67750;DHT22;54550;48.838;8.828;2023-11-21T05:01:30;6.10;99.90
67750;DHT22;54550;48.838;8.828;2023-11-21T05:03:56;6.10;99.90
67750;DHT22;54550;48.838;8.828;2023-11-21T05:06:22;6.10;99.90
67750;DHT22;54550;48.838;8.828;2023-11-21T05:08:49;6.10;99.90
67750;DHT22;54550;48.838;8.828;2023-11-21T05:11:27;6.00;99.90
67750;DHT22;54550;48.838;8.828;2023-11-21T05:13:52;6.00;99.90
67750;DHT22;54550;48.838;8.828;2023-11-21T05:16:21;5.80;99.90
67750;DHT22;54550;48.838;8.828;2023-11-21T05:18:47;5.80;99.90
67750;DHT22;54550;48.838;8.828;2023-11-21T05:21:13;5.70;99.90
67750;DHT22;54550;48.838;8.828;2023-11-21T05:23:38;5.60;99.90
67750;DHT22;54550;48.838;8.828;2023-11-21T05:26:05;5.50;99.90
67750;DHT22;54550;48.838;8.828;2023-11-21T05:28:30;5.50;99.90
67750;DHT22;54550;48.838;8.828;2023-11-21T05:30:55;5.40;99.90
67750;DHT22;54550;48.838;8.828;2023-11-21T05:33:21;5.40;99.90
67750;DHT22;54550;48.838;8.828;2023-11-21T05:35:46;5.40;99.90
67750;DHT22;54550;48.838;8.828;2023-11-21T05:38:13;5.40;99.90
67750;DHT22;54550;48.838;8.828;2023-11-21T05:40:39;5.40;99.90
67750;DHT22;54550;48.838;8.828;2023-11-21T05:43:04;5.50;99.90
67750;DHT22;54550;48.838;8.828;2023-11-21T05:45:30;5.60;99.90
67750;DHT22;54550;48.838;8.828;2023-11-21T05:47:57;5.70;99.90
67750;DHT22;54550;48.838;8.828;2023-11-21T05:50:22;5.80;99.90
67750;DHT22;54550;48.838;8.828;2023-11-21T05:52:48;5.80;99.90
67750;DHT22;54550;48.838;8.828;2023-11-21T05:55:14;5.80;99.90
67750;DHT22;54550;48.838;8.828;2023-11-21T05:57:41;5.80;99.90
67750;DHT22;54550;48.838;8.828;2023-11-21T06:00:07;5.80;99.90
67750;DHT22;54550;48.838;8.828;2023-11-21T06:02:37;5.70;99.90
67750;DHT22;54550;48.838;8.828;2023-11-21T06:05:04;5.60;99.90
67750;DHT22;54550;48.838;8.828;2023-11-21T06:07:29;5.40;99.90
67750;DHT22;54550;48.838;8.828;2023-11-21T06:09:55;5.40;99.90
67750;DHT22;54550;48.838;8.828;2023-11-21T06:12:20;5.40;99.90
67750;DHT22;54550;48.838;8.828;2023-11-21T06:14:46;5.40;99.90
67750;DHT22;54550;48.838;8.828;2023-11-21T06:17:11;5.40;99.90
67750;DHT22;54550;48.838;8.828;2023-11-21T06:19:37;5.30;99.90
67750;DHT22;54550;48.838;8.828;2023-11-21T06:22:02;5.30;99.90
67750;DHT22;54550;48.838;8.828;2023-11-21T06:24:27;5.30;99.90
67750;DHT22;54550;48.838;8.828;2023-11-21T06:26:53;5.20;99.90
67750;DHT22;54550;48.838;8.828;2023-11-21T06:29:18;5.30;99.90
67750;DHT22;54550;48.838;8.828;2023-11-21T06:31:44;5.30;99.90
67750;DHT22;54550;48.838;8.828;2023-11-21T06:34:09;5.30;99.90
67750;DHT22;54550;48.838;8.828;2023-11-21T06:36:35;5.40;99.90
67750;DHT22;54550;48.838;8.828;2023-11-21T06:39:01;5.50;99.90
67750;DHT22;54550;48.838;8.828;2023-11-21T06:41:26;5.70;99.90
67750;DHT22;54550;48.838;8.828;2023-11-21T06:43:52;5.80;99.90
67750;DHT22;54550;48.838;8.828;2023-11-21T06:46:18;5.90;99.90
67750;DHT22;54550;48.838;8.828;2023-11-21T06:48:45;6.00;99.90
67750;DHT22;54550;48.838;8.828;2023-11-21T06:51:10;6.00;99.90
67750;DHT22;54550;48.838;8.828;2023-11-21T06:53:36;6.10;99.90
67750;DHT22;54550;48.838;8.828;2023-11-21T06:56:02;6.10;99.90
67750;DHT22;54550;48.838;8.828;2023-11-21T06:58:27;6.20;99.90
67750;DHT22;54550;48.838;8.828;2023-11-21T07:00:53;6.20;99.90
67750;DHT22;54550;48.838;8.828;2023-11-21T07:03:18;6.30;99.90
67750;DHT22;54550;48.838;8.828;2023-11-21T07:05:44;6.30;99.90
67750;DHT22;54550;48.838;8.828;2023-11-21T07:08:10;6.30;99.90
67750;DHT22;54550;48.838;8.828;2023-11-21T07:10:35;6.30;99.90
67750;DHT22;54550;48.838;8.828;2023-11-21T07:13:02;6.30;99.90
67750;DHT22;54550;48.838;8.828;2023-11-21T07:15:27;6.30;99.90
67750;DHT22;54550;48.838;8.828;2023-11-21T07:17:53;6.30;99.90
67750;DHT22;54550;48.838;8.828;2023-11-21T07:20:19;6.30;99.90
67750;DHT22;54550;48.838;8.828;2023-11-21T07:22:45;6.30;99.90
67750;DHT22;54550;48.838;8.828;2023-11-21T07:25:10;6.30;99.90
67750;DHT22;54550;48.838;8.828;2023-11-21T07:27:36;6.30;99.90
67750;DHT22;54550;48.838;8.828;2023-11-21T07:30:02;6.40;99.90
67750;DHT22;54550;48.838;8.828;2023-11-21T07:32:33;6.40;99.90
67750;DHT22;54550;48.838;8.828;2023-11-21T07:34:59;6.40;99.90
67750;DHT22;54550;48.838;8.828;2023-11-21T07:37:26;6.40;99.90
67750;DHT22;54550;48.838;8.828;2023-11-21T07:39:54;6.50;99.90
67750;DHT22;54550;48.838;8.828;2023-11-21T07:42:24;6.50;99.90
67750;DHT22;54550;48.838;8.828;2023-11-21T07:44:51;6.60;99.90
67750;DHT22;54550;48.838;8.828;2023-11-21T07:47:17;6.70;99.90
67750;DHT22;54550;48.838;8.828;2023-11-21T07:49:42;6.70;99.90
67750;DHT22;54550;48.838;8.828;2023-11-21T07:52:09;6.80;99.90
67750;DHT22;54550;48.838;8.828;2023-11-21T07:54:35;6.90;99.90
67750;DHT22;54550;48.838;8.828;2023-11-21T07:57:01;6.90;99.90
67750;DHT22;54550;48.838;8.828;2023-11-21T07:59:26;7.00;99.90
67750;DHT22;54550;48.838;8.828;2023-11-21T08:01:52;7.20;99.90
67750;DHT22;54550;48.838;8.828;2023-11-21T08:04:17;7.30;99.90
67750;DHT22;54550;48.838;8.828;2023-11-21T08:06:43;7.30;99.90
67750;DHT22;54550;48.838;8.828;2023-11-21T08:09:09;7.30;99.90
67750;DHT22;54550;48.838;8.828;2023-11-21T08:11:35;7.30;99.90
67750;DHT22;54550;48.838;8.828;2023-11-21T08:14:00;7.30;99.90
67750;DHT22;54550;48.838;8.828;2023-11-21T08:16:26;7.40;99.90
67750;DHT22;54550;48.838;8.828;2023-11-21T08:18:52;7.40;99.90
67750;DHT22;54550;48.838;8.828;2023-11-21T08:21:18;7.30;99.90
67750;DHT22;54550;48.838;8.828;2023-11-21T08:23:44;7.40;99.90
67750;DHT22;54550;48.838;8.828;2023-11-21T08:26:09;7.40;99.90
67750;DHT22;54550;48.838;8.828;2023-11-21T08:28:35;7.40;99.90
67750;DHT22;54550;48.838;8.828;2023-11-21T08:31:00;7.30;99.90
67750;DHT22;54550;48.838;8.828;2023-11-21T08:33:26;7.20;99.90
67750;DHT22;54550;48.838;8.828;2023-11-21T08:35:52;7.20;99.90
67750;DHT22;54550;48.838;8.828;2023-11-21T08:38:17;7.20;99.90
67750;DHT22;54550;48.838;8.828;2023-11-21T08:40:43;7.20;99.90
67750;DHT22;54550;48.838;8.828;2023-11-21T08:43:08;7.30;99.90
67750;DHT22;54550;48.838;8.828;2023-11-21T08:45:34;7.30;99.90
67750;DHT22;54550;48.838;8.828;2023-11-21T08:48:00;7.20;99.90
67750;DHT22;54550;48.838;8.828;2023-11-21T08:50:25;7.30;99.90
67750;DHT22;54550;48.838;8.828;2023-11-21T08:52:51;7.30;99.90
67750;DHT22;54550;48.838;8.828;2023-11-21T08:55:16;7.30;99.90
67750;DHT22;54550;48.838;8.828;2023-11-21T08:57:43;7.30;99.90
67750;DHT22;54550;48.838;8.828;2023-11-21T09:00:09;7.30;99.90
67750;DHT22;54550;48.838;8.828;2023-11-21T09:02:39;7.30;99.90
67750;DHT22;54550;48.838;8.828;2023-11-21T09:05:10;7.40;99.90
67750;DHT22;54550;48.838;8.828;2023-11-21T09:07:36;7.40;99.90
67750;DHT22;54550;48.838;8.828;2023-11-21T09:10:02;7.50;99.90
67750;DHT22;54550;48.838;8.828;2023-11-21T09:12:27;7.50;99.90
67750;DHT22;54550;48.838;8.828;2023-11-21T09:14:53;7.60;99.90
67750;DHT22;54550;48.838;8.828;2023-11-21T09:17:19;7.70;99.90
67750;DHT22;54550;48.838;8.828;2023-11-21T09:19:44;7.90;99.90
67750;DHT22;54550;48.838;8.828;2023-11-21T09:22:12;7.90;99.90
67750;DHT22;54550;48.838;8.828;2023-11-21T09:24:38;7.90;99.90
67750;DHT22;54550;48.838;8.828;2023-11-21T09:27:03;7.90;99.90
67750;DHT22;54550;48.838;8.828;2023-11-21T09:29:30;7.90;99.90
67750;DHT22;54550;48.838;8.828;2023-11-21T09:31:55;8.00;99.90
67750;DHT22;54550;48.838;8.828;2023-11-21T09:34:24;8.10;99.90
67750;DHT22;54550;48.838;8.828;2023-11-21T09:36:50;8.10;99.90
67750;DHT22;54550;48.838;8.828;2023-11-21T09:39:16;8.00;99.90
67750;DHT22;54550;48.838;8.828;2023-11-21T09:41:48;8.00;99.90
67750;DHT22;54550;48.838;8.828;2023-11-21T09:44:16;8.00;99.90
67750;DHT22;54550;48.838;8.828;2023-11-21T09:46:42;7.90;99.90
67750;DHT22;54550;48.838;8.828;2023-11-21T09:49:09;7.90;99.90
67750;DHT22;54550;48.838;8.828;2023-11-21T09:51:38;7.90;99.90
67750;DHT22;54550;48.838;8.828;2023-11-21T09:54:06;7.90;99.90
67750;DHT22;54550;48.838;8.828;2023-11-21T09:56:32;7.90;99.90
67750;DHT22;54550;48.838;8.828;2023-11-21T09:58:58;8.00;99.90
67750;DHT22;54550;48.838;8.828;2023-11-21T10:01:29;8.00;99.90
67750;DHT22;54550;48.838;8.828;2023-11-21T10:03:54;8.10;99.90
67750;DHT22;54550;48.838;8.828;2023-11-21T10:06:21;8.20;99.90
67750;DHT22;54550;48.838;8.828;2023-11-21T10:08:48;8.20;99.90
67750;DHT22;54550;48.838;8.828;2023-11-21T10:11:15;8.30;99.90
67750;DHT22;54550;48.838;8.828;2023-11-21T10:13:43;8.40;99.90
67750;DHT22;54550;48.838;8.828;2023-11-21T10:16:09;8.40;99.90
67750;DHT22;54550;48.838;8.828;2023-11-21T10:18:37;8.50;99.90
67750;DHT22;54550;48.838;8.828;2023-11-21T10:21:05;8.50;99.90
67750;DHT22;54550;48.838;8.828;2023-11-21T10:23:31;8.50;99.90
67750;DHT22;54550;48.838;8.828;2023-11-21T10:25:56;8.30;99.90
67750;DHT22;54550;48.838;8.828;2023-11-21T10:28:24;8.10;99.90
67750;DHT22;54550;48.838;8.828;2023-11-21T10:30:50;8.10;99.90
67750;DHT22;54550;48.838;8.828;2023-11-21T10:33:15;8.10;99.90
67750;DHT22;54550;48.838;8.828;2023-11-21T10:38:07;8.10;99.90
67750;DHT22;54550;48.838;8.828;2023-11-21T10:40:38;8.10;99.90
67750;DHT22;54550;48.838;8.828;2023-11-21T10:43:08;8.20;99.90
67750;DHT22;54550;48.838;8.828;2023-11-21T10:45:35;8.00;99.90
67750;DHT22;54550;48.838;8.828;2023-11-21T10:48:00;8.00;99.90
67750;DHT22;54550;48.838;8.828;2023-11-21T10:50:26;8.20;99.90
67750;DHT22;54550;48.838;8.828;2023-11-21T10:52:51;8.30;99.90
67750;DHT22;54550;48.838;8.828;2023-11-21T10:55:17;8.30;99.90
67750;DHT22;54550;48.838;8.828;2023-11-21T10:57:45;8.40;99.90
67750;DHT22;54550;48.838;8.828;2023-11-21T11:00:13;8.40;99.90
67750;DHT22;54550;48.838;8.828;2023-11-21T11:02:39;8.40;99.90
67750;DHT22;54550;48.838;8.828;2023-11-21T11:05:05;8.30;99.90
67750;DHT22;54550;48.838;8.828;2023-11-21T11:07:31;8.30;99.90
67750;DHT22;54550;48.838;8.828;2023-11-21T11:09:59;8.30;99.90
67750;DHT22;54550;48.838;8.828;2023-11-21T11:12:25;8.40;99.90
67750;DHT22;54550;48.838;8.828;2023-11-21T11:14:51;8.50;99.90
67750;DHT22;54550;48.838;8.828;2023-11-21T11:17:18;8.70;99.90
67750;DHT22;54550;48.838;8.828;2023-11-21T11:19:46;8.80;99.90
67750;DHT22;54550;48.838;8.828;2023-11-21T11:22:36;8.80;99.90
67750;DHT22;54550;48.838;8.828;2023-11-21T11:25:04;8.70;99.90
67750;DHT22;54550;48.838;8.828;2023-11-21T11:27:39;8.50;99.90
67750;DHT22;54550;48.838;8.828;2023-11-21T11:35:28;8.40;99.90
67750;DHT22;54550;48.838;8.828;2023-11-21T11:37:58;8.40;99.90
67750;DHT22;54550;48.838;8.828;2023-11-21T11:40:25;8.30;99.90
67750;DHT22;54550;48.838;8.828;2023-11-21T11:42:57;8.50;99.90
67750;DHT22;54550;48.838;8.828;2023-11-21T11:45:34;8.60;99.90
67750;DHT22;54550;48.838;8.828;2023-11-21T11:48:01;8.80;99.90
67750;DHT22;54550;48.838;8.828;2023-11-21T11:50:27;8.70;99.90
67750;DHT22;54550;48.838;8.828;2023-11-21T11:52:53;8.70;99.90
67750;DHT22;54550;48.838;8.828;2023-11-21T11:55:23;8.60;99.90
67750;DHT22;54550;48.838;8.828;2023-11-21T11:57:49;8.60;99.90
67750;DHT22;54550;48.838;8.828;2023-11-21T12:00:18;8.70;99.90
67750;DHT22;54550;48.838;8.828;2023-11-21T12:02:46;8.70;99.90
67750;DHT22;54550;48.838;8.828;2023-11-21T12:05:13;8.70;99.90
67750;DHT22;54550;48.838;8.828;2023-11-21T12:07:41;8.90;99.90
67750;DHT22;54550;48.838;8.828;2023-11-21T12:10:07;8.90;99.90
67750;DHT22;54550;48.838;8.828;2023-11-21T12:12:32;9.00;99.90
67750;DHT22;54550;48.838;8.828;2023-11-21T12:14:59;9.00;99.90
67750;DHT22;54550;48.838;8.828;2023-11-21T12:17:24;9.00;99.90
67750;DHT22;54550;48.838;8.828;2023-11-21T12:19:50;8.90;99.90
67750;DHT22;54550;48.838;8.828;2023-11-21T12:22:17;8.90;99.90
67750;DHT22;54550;48.838;8.828;2023-11-21T12:24:44;9.00;99.90
67750;DHT22;54550;48.838;8.828;2023-11-21T12:27:09;9.00;99.90
67750;DHT22;54550;48.838;8.828;2023-11-21T12:29:34;9.00;99.90
67750;DHT22;54550;48.838;8.828;2023-11-21T12:32:03;9.00;99.90
67750;DHT22;54550;48.838;8.828;2023-11-21T12:34:28;8.80;99.90
67750;DHT22;54550;48.838;8.828;2023-11-21T12:36:54;8.90;99.90
67750;DHT22;54550;48.838;8.828;2023-11-21T12:39:20;8.90;99.90
67750;DHT22;54550;48.838;8.828;2023-11-21T12:41:48;8.90;99.90
67750;DHT22;54550;48.838;8.828;2023-11-21T12:44:13;8.90;99.90
67750;DHT22;54550;48.838;8.828;2023-11-21T12:46:41;8.80;99.90
67750;DHT22;54550;48.838;8.828;2023-11-21T12:49:07;8.70;99.90
67750;DHT22;54550;48.838;8.828;2023-11-21T12:51:32;8.70;99.90
67750;DHT22;54550;48.838;8.828;2023-11-21T12:53:59;8.80;99.90
67750;DHT22;54550;48.838;8.828;2023-11-21T12:56:24;8.70;99.90
67750;DHT22;54550;48.838;8.828;2023-11-21T12:58:50;8.80;99.90
67750;DHT22;54550;48.838;8.828;2023-11-21T13:01:17;8.80;99.90
67750;DHT22;54550;48.838;8.828;2023-11-21T13:03:47;8.90;99.90
67750;DHT22;54550;48.838;8.828;2023-11-21T13:06:16;8.90;99.90
67750;DHT22;54550;48.838;8.828;2023-11-21T13:08:43;8.70;99.90
67750;DHT22;54550;48.838;8.828;2023-11-21T13:11:10;8.60;99.90
67750;DHT22;54550;48.838;8.828;2023-11-21T13:13:35;8.40;99.90
67750;DHT22;54550;48.838;8.828;2023-11-21T13:16:02;8.20;99.90
67750;DHT22;54550;48.838;8.828;2023-11-21T13:18:30;8.10;99.90
67750;DHT22;54550;48.838;8.828;2023-11-21T13:20:57;8.10;99.90
67750;DHT22;54550;48.838;8.828;2023-11-21T13:23:24;8.10;99.90
67750;DHT22;54550;48.838;8.828;2023-11-21T13:25:49;8.10;99.90
67750;DHT22;54550;48.838;8.828;2023-11-21T13:28:15;8.10;99.90
67750;DHT22;54550;48.838;8.828;2023-11-21T13:30:41;8.30;99.90
67750;DHT22;54550;48.838;8.828;2023-11-21T13:33:07;8.30;99.90
67750;DHT22;54550;48.838;8.828;2023-11-21T13:35:33;8.20;99.90
67750;DHT22;54550;48.838;8.828;2023-11-21T13:38:06;8.20;99.90
67750;DHT22;54550;48.838;8.828;2023-11-21T13:40:33;8.20;99.90
67750;DHT22;54550;48.838;8.828;2023-11-21T13:43:05;8.20;99.90
67750;DHT22;54550;48.838;8.828;2023-11-21T13:45:30;8.20;99.90
67750;DHT22;54550;48.838;8.828;2023-11-21T13:47:56;8.20;99.90
67750;DHT22;54550;48.838;8.828;2023-11-21T13:50:23;8.40;99.90
67750;DHT22;54550;48.838;8.828;2023-11-21T13:52:51;8.40;99.90
67750;DHT22;54550;48.838;8.828;2023-11-21T13:55:18;8.40;99.90
67750;DHT22;54550;48.838;8.828;2023-11-21T13:57:44;8.30;99.90
67750;DHT22;54550;48.838;8.828;2023-11-21T14:00:15;8.20;99.90
67750;DHT22;54550;48.838;8.828;2023-11-21T14:03:00;8.20;99.90
67750;DHT22;54550;48.838;8.828;2023-11-21T14:05:26;8.20;99.90
67750;DHT22;54550;48.838;8.828;2023-11-21T14:07:57;8.20;99.90
67750;DHT22;54550;48.838;8.828;2023-11-21T14:10:29;8.20;99.90
67750;DHT22;54550;48.838;8.828;2023-11-21T14:13:05;8.20;99.90
67750;DHT22;54550;48.838;8.828;2023-11-21T14:15:31;8.10;99.90
67750;DHT22;54550;48.838;8.828;2023-11-21T14:17:58;8.10;99.90
67750;DHT22;54550;48.838;8.828;2023-11-21T14:20:25;8.00;99.90
67750;DHT22;54550;48.838;8.828;2023-11-21T14:22:50;7.90;99.90
67750;DHT22;54550;48.838;8.828;2023-11-21T14:25:16;7.90;99.90
67750;DHT22;54550;48.838;8.828;2023-11-21T14:27:43;7.80;99.90
67750;DHT22;54550;48.838;8.828;2023-11-21T14:30:08;7.70;99.90
67750;DHT22;54550;48.838;8.828;2023-11-21T14:32:36;7.70;99.90
67750;DHT22;54550;48.838;8.828;2023-11-21T14:35:03;7.70;99.90
67750;DHT22;54550;48.838;8.828;2023-11-21T14:37:29;7.60;99.90
67750;DHT22;54550;48.838;8.828;2023-11-21T14:39:54;7.60;99.90
67750;DHT22;54550;48.838;8.828;2023-11-21T14:42:20;7.60;99.90
67750;DHT22;54550;48.838;8.828;2023-11-21T14:44:50;7.60;99.90
67750;DHT22;54550;48.838;8.828;2023-11-21T14:47:17;7.60;99.90
67750;DHT22;54550;48.838;8.828;2023-11-21T14:49:45;7.50;99.90
67750;DHT22;54550;48.838;8.828;2023-11-21T14:52:24;7.50;99.90
67750;DHT22;54550;48.838;8.828;2023-11-21T14:55:00;7.50;99.90
67750;DHT22;54550;48.838;8.828;2023-11-21T14:58:04;7.50;99.90
67750;DHT22;54550;48.838;8.828;2023-11-21T15:00:29;7.50;99.90
67750;DHT22;54550;48.838;8.828;2023-11-21T15:03:01;7.40;99.90
67750;DHT22;54550;48.838;8.828;2023-11-21T15:05:27;7.40;99.90
67750;DHT22;54550;48.838;8.828;2023-11-21T15:07:53;7.40;99.90
67750;DHT22;54550;48.838;8.828;2023-11-21T15:10:21;7.40;99.90
67750;DHT22;54550;48.838;8.828;2023-11-21T15:12:55;7.30;99.90
67750;DHT22;54550;48.838;8.828;2023-11-21T15:15:21;7.30;99.90
67750;DHT22;54550;48.838;8.828;2023-11-21T15:17:46;7.30;99.90
67750;DHT22;54550;48.838;8.828;2023-11-21T15:20:12;7.30;99.90
67750;DHT22;54550;48.838;8.828;2023-11-21T15:22:44;7.30;99.90
67750;DHT22;54550;48.838;8.828;2023-11-21T15:25:10;7.20;99.90
67750;DHT22;54550;48.838;8.828;2023-11-21T15:27:35;7.20;99.90
67750;DHT22;54550;48.838;8.828;2023-11-21T15:30:04;7.30;99.90
67750;DHT22;54550;48.838;8.828;2023-11-21T15:32:30;7.30;99.90
67750;DHT22;54550;48.838;8.828;2023-11-21T15:34:56;7.20;99.90
67750;DHT22;54550;48.838;8.828;2023-11-21T15:37:21;7.20;99.90
67750;DHT22;54550;48.838;8.828;2023-11-21T15:39:46;7.30;99.90
67750;DHT22;54550;48.838;8.828;2023-11-21T15:42:12;7.20;99.90
67750;DHT22;54550;48.838;8.828;2023-11-21T15:44:37;7.20;99.90
67750;DHT22;54550;48.838;8.828;2023-11-21T15:47:04;7.20;99.90
67750;DHT22;54550;48.838;8.828;2023-11-21T15:49:31;7.20;99.90